createdAt,value
2019-01-17T00:00:36.007Z,5.12
2019-01-17T00:02:11.702Z,4.50
2019-01-17T00:03:34.656Z,5.62
2019-01-17T00:04:58.261Z,5.10
2019-01-17T00:06:28.000Z,5.35
2019-01-17T00:07:51.695Z,4.55
2019-01-17T00:09:03.257Z,4.85
2019-01-17T00:10:30.940Z,5.65
2019-01-17T00:11:53.504Z,5.78
2019-01-17T00:13:16.424Z,5.40
2019-01-17T00:14:43.828Z,4.80
2019-01-17T00:16:14.730Z,4.62
2019-01-17T00:17:46.698Z,4.90
2019-01-17T00:19:12.383Z,4.97
2019-01-17T00:20:35.368Z,5.28
2019-01-17T00:21:56.942Z,5.10
2019-01-17T00:23:24.049Z,4.25
2019-01-17T00:24:39.607Z,4.70
2019-01-17T00:26:04.132Z,5.15
2019-01-17T00:27:34.013Z,4.87
2019-01-17T00:28:57.122Z,4.60
2019-01-17T00:30:21.345Z,4.65
2019-01-17T00:31:39.354Z,4.87
2019-01-17T00:32:54.827Z,4.60
2019-01-17T00:34:18.171Z,4.67
2019-01-17T00:35:42.297Z,5.25
2019-01-17T00:37:02.012Z,5.08
2019-01-17T00:38:26.350Z,4.55
2019-01-17T00:39:50.847Z,4.40
2019-01-17T00:41:21.008Z,4.72
2019-01-17T00:42:48.267Z,4.70
2019-01-17T00:44:18.165Z,3.75
2019-01-17T00:45:43.627Z,4.92
2019-01-17T00:47:22.084Z,4.50
2019-01-17T00:48:34.261Z,4.55
2019-01-17T00:49:58.391Z,4.58
2019-01-17T00:51:21.037Z,3.85
2019-01-17T00:52:56.313Z,4.08
2019-01-17T00:54:15.186Z,3.95
2019-01-17T00:55:38.126Z,4.33
2019-01-17T00:57:08.079Z,4.45
2019-01-17T00:58:30.635Z,4.35
2019-01-17T00:59:58.063Z,4.78
2019-01-17T01:01:10.807Z,4.05
2019-01-17T01:02:37.633Z,4.28
2019-01-17T01:04:05.237Z,4.00
2019-01-17T01:05:47.529Z,4.08
2019-01-17T01:07:13.661Z,5.15
2019-01-17T01:08:40.912Z,4.08
2019-01-17T01:10:03.451Z,3.60
2019-01-17T01:11:24.233Z,4.22
2019-01-17T01:12:47.305Z,4.65
2019-01-17T01:14:11.153Z,4.58
2019-01-17T01:15:38.141Z,4.80
2019-01-17T01:17:11.882Z,3.50
2019-01-17T01:18:32.574Z,3.80
2019-01-17T01:19:57.898Z,3.75
2019-01-17T01:21:16.592Z,3.90
2019-01-17T01:22:46.399Z,3.55
2019-01-17T01:24:16.597Z,3.80
2019-01-17T01:25:39.520Z,3.60
2019-01-17T01:27:18.622Z,3.72
2019-01-17T01:28:41.590Z,3.62
2019-01-17T01:30:05.382Z,3.70
2019-01-17T01:31:47.822Z,3.83
2019-01-17T01:33:12.036Z,3.70
2019-01-17T01:34:44.866Z,3.80
2019-01-17T01:36:14.513Z,3.37
2019-01-17T01:37:43.303Z,3.27
2019-01-17T01:39:13.159Z,3.62
2019-01-17T01:40:33.999Z,3.10
2019-01-17T01:41:58.232Z,3.02
2019-01-17T01:43:22.023Z,3.47
2019-01-17T01:44:53.602Z,3.47
2019-01-17T01:46:36.283Z,3.35
2019-01-17T01:48:10.356Z,3.10
2019-01-17T01:49:29.685Z,3.12
2019-01-17T01:50:53.105Z,3.47
2019-01-17T01:52:05.649Z,3.55
2019-01-17T01:53:11.044Z,3.25
2019-01-17T01:54:21.881Z,3.72
2019-01-17T01:55:23.011Z,2.83
2019-01-17T01:56:28.153Z,3.50
2019-01-17T01:57:33.206Z,3.70
2019-01-17T01:58:38.612Z,3.35
2019-01-17T01:59:43.889Z,3.47
2019-01-17T02:00:49.592Z,3.50
2019-01-17T02:01:54.944Z,3.30
2019-01-17T02:03:00.692Z,3.52
2019-01-17T02:04:07.163Z,3.62
2019-01-17T02:05:12.791Z,3.90
2019-01-17T02:06:18.203Z,4.05
2019-01-17T02:07:23.216Z,3.65
2019-01-17T02:08:28.409Z,3.77
2019-01-17T02:09:33.826Z,3.67
2019-01-17T02:10:38.492Z,3.90
2019-01-17T02:11:43.545Z,3.77
2019-01-17T02:12:48.553Z,3.40
2019-01-17T02:13:55.150Z,4.03
2019-01-17T02:15:00.868Z,3.92
2019-01-17T02:16:05.663Z,3.52
2019-01-17T02:17:11.128Z,3.95
2019-01-17T02:18:15.668Z,4.00
2019-01-17T02:19:21.670Z,3.80
2019-01-17T02:20:27.093Z,3.60
2019-01-17T02:21:32.694Z,3.25
2019-01-17T02:22:37.577Z,3.62
2019-01-17T02:23:42.695Z,3.45
2019-01-17T02:24:47.935Z,3.60
2019-01-17T02:25:53.142Z,3.95
2019-01-17T02:27:01.775Z,3.90
2019-01-17T02:28:07.133Z,3.40
2019-01-17T02:29:12.705Z,3.40
2019-01-17T02:30:17.992Z,3.67
2019-01-17T02:31:22.928Z,3.40
2019-01-17T02:32:27.733Z,3.72
2019-01-17T02:33:33.348Z,3.65
2019-01-17T02:34:38.988Z,3.50
2019-01-17T02:35:44.617Z,3.92
2019-01-17T02:36:50.375Z,3.47
2019-01-17T02:37:55.319Z,3.87
2019-01-17T02:39:00.902Z,3.67
2019-01-17T02:40:06.298Z,3.75
2019-01-17T02:41:11.671Z,3.35
2019-01-17T02:42:16.522Z,3.42
2019-01-17T02:43:21.692Z,3.42
2019-01-17T02:44:26.914Z,3.50
2019-01-17T02:45:31.778Z,3.52
2019-01-17T02:46:37.119Z,4.12
2019-01-17T02:47:42.133Z,3.95
2019-01-17T02:48:47.758Z,3.67
2019-01-17T02:49:52.297Z,3.85
2019-01-17T02:50:57.247Z,3.95
2019-01-17T02:52:02.161Z,3.72
2019-01-17T02:53:07.740Z,4.00
2019-01-17T02:54:12.628Z,3.90
2019-01-17T02:55:17.978Z,3.67
2019-01-17T02:56:23.017Z,3.42
2019-01-17T02:57:27.599Z,3.50
2019-01-17T02:58:32.479Z,3.85
2019-01-17T02:59:37.863Z,3.17
2019-01-17T03:00:42.820Z,3.75
2019-01-17T03:01:48.163Z,3.70
2019-01-17T03:02:53.497Z,3.67
2019-01-17T03:03:58.836Z,4.10
2019-01-17T03:05:03.494Z,3.83
2019-01-17T03:06:09.279Z,4.05
2019-01-17T03:07:14.146Z,4.50
2019-01-17T03:08:19.532Z,3.98
2019-01-17T03:09:24.604Z,4.17
2019-01-17T03:10:30.437Z,4.40
2019-01-17T03:11:36.045Z,4.10
2019-01-17T03:12:41.562Z,3.95
2019-01-17T03:13:47.678Z,4.17
2019-01-17T03:14:53.476Z,4.50
2019-01-17T03:15:58.338Z,4.22
2019-01-17T03:17:03.385Z,4.05
2019-01-17T03:18:08.752Z,4.30
2019-01-17T03:19:13.379Z,4.35
2019-01-17T03:20:18.709Z,5.25
2019-01-17T03:21:24.119Z,4.37
2019-01-17T03:22:29.274Z,4.10
2019-01-17T03:23:34.991Z,4.53
2019-01-17T03:24:43.086Z,4.65
2019-01-17T03:25:47.479Z,4.17
2019-01-17T03:26:52.976Z,4.62
2019-01-17T03:28:00.626Z,4.40
2019-01-17T03:29:05.595Z,4.40
2019-01-17T03:30:14.163Z,4.33
2019-01-17T03:31:19.143Z,4.75
2019-01-17T03:32:23.912Z,4.62
2019-01-17T03:33:29.420Z,4.42
2019-01-17T03:34:34.747Z,4.35
2019-01-17T03:35:40.120Z,4.62
2019-01-17T03:36:45.083Z,4.47
2019-01-17T03:37:49.986Z,4.47
2019-01-17T03:38:55.787Z,4.10
2019-01-17T03:40:00.961Z,4.75
2019-01-17T03:41:06.462Z,4.50
2019-01-17T03:42:12.222Z,4.85
2019-01-17T03:43:17.082Z,4.53
2019-01-17T03:44:22.376Z,4.50
2019-01-17T03:45:27.213Z,4.45
2019-01-17T03:46:32.328Z,4.45
2019-01-17T03:47:38.052Z,4.15
2019-01-17T03:48:43.807Z,4.22
2019-01-17T03:49:48.387Z,4.00
2019-01-17T03:50:54.020Z,3.58
2019-01-17T03:51:59.324Z,4.00
2019-01-17T03:53:04.372Z,4.08
2019-01-17T03:54:10.588Z,4.12
2019-01-17T03:55:17.888Z,4.25
2019-01-17T03:56:22.492Z,4.40
2019-01-17T03:57:27.357Z,4.20
2019-01-17T03:58:33.129Z,4.25
2019-01-17T03:59:39.246Z,4.55
2019-01-17T04:00:44.163Z,4.72
2019-01-17T04:01:49.118Z,4.60
2019-01-17T04:02:57.609Z,4.97
2019-01-17T04:04:02.565Z,4.40
2019-01-17T04:05:08.094Z,5.12
2019-01-17T04:06:12.949Z,4.22
2019-01-17T04:07:18.735Z,5.00
2019-01-17T04:08:23.754Z,4.30
2019-01-17T04:09:29.526Z,4.50
2019-01-17T04:10:37.773Z,4.70
2019-01-17T04:11:42.403Z,4.70
2019-01-17T04:12:46.914Z,4.97
2019-01-17T04:13:51.756Z,4.97
2019-01-17T04:14:57.160Z,4.97
2019-01-17T04:16:02.047Z,5.55
2019-01-17T04:17:07.287Z,5.80
2019-01-17T04:18:12.226Z,5.55
2019-01-17T04:19:17.818Z,5.28
2019-01-17T04:20:23.155Z,5.72
2019-01-17T04:21:28.187Z,5.60
2019-01-17T04:22:33.895Z,5.97
2019-01-17T04:23:38.848Z,5.83
2019-01-17T04:24:43.903Z,6.62
2019-01-17T04:25:50.353Z,6.70
2019-01-17T04:26:55.820Z,7.50
2019-01-17T04:28:01.049Z,7.50
2019-01-17T04:29:06.022Z,7.12
2019-01-17T04:30:16.569Z,7.20
2019-01-17T04:31:22.839Z,7.22
2019-01-17T04:32:28.517Z,7.95
2019-01-17T04:33:34.230Z,7.35
2019-01-17T04:34:39.058Z,7.25
2019-01-17T04:35:44.425Z,7.45
2019-01-17T04:36:49.856Z,7.87
2019-01-17T04:37:55.477Z,8.10
2019-01-17T04:39:00.784Z,8.28
2019-01-17T04:40:06.273Z,7.92
2019-01-17T04:41:12.094Z,8.65
2019-01-17T04:42:17.842Z,7.78
2019-01-17T04:43:22.482Z,8.55
2019-01-17T04:44:27.884Z,7.97
2019-01-17T04:45:33.278Z,7.80
2019-01-17T04:46:38.334Z,8.25
2019-01-17T04:47:43.005Z,7.95
2019-01-17T04:48:48.621Z,8.65
2019-01-17T04:49:54.417Z,8.38
2019-01-17T04:50:59.643Z,9.08
2019-01-17T04:52:04.705Z,8.60
2019-01-17T04:53:10.903Z,9.13
2019-01-17T04:54:16.243Z,8.50
2019-01-17T04:55:21.340Z,9.38
2019-01-17T04:56:26.776Z,9.83
2019-01-17T04:57:32.157Z,9.50
2019-01-17T04:58:37.203Z,9.60
2019-01-17T04:59:42.531Z,9.68
2019-01-17T05:00:47.461Z,9.40
2019-01-17T05:01:53.285Z,9.40
2019-01-17T05:02:58.326Z,9.93
2019-01-17T05:04:03.757Z,9.43
2019-01-17T05:05:08.798Z,9.13
2019-01-17T05:06:14.165Z,9.68
2019-01-17T05:07:22.743Z,9.03
2019-01-17T05:08:28.039Z,8.70
2019-01-17T05:09:33.324Z,8.85
2019-01-17T05:11:28.917Z,8.95
2019-01-17T05:12:34.211Z,9.28
2019-01-17T05:13:39.940Z,8.93
2019-01-17T05:14:45.710Z,8.85
2019-01-17T05:15:51.047Z,9.38
2019-01-17T05:16:57.752Z,9.60
2019-01-17T05:18:02.832Z,9.28
2019-01-17T05:19:08.109Z,8.78
2019-01-17T05:20:14.721Z,9.13
2019-01-17T05:21:23.124Z,9.10
2019-01-17T05:22:29.183Z,8.83
2019-01-17T05:23:34.495Z,8.50
2019-01-17T05:24:40.359Z,7.67
2019-01-17T05:25:45.723Z,7.85
2019-01-17T05:26:51.560Z,7.35
2019-01-17T05:27:56.489Z,7.20
2019-01-17T05:29:01.980Z,6.80
2019-01-17T05:30:08.828Z,7.45
2019-01-17T05:31:14.593Z,7.03
2019-01-17T05:32:19.402Z,7.35
2019-01-17T05:33:24.611Z,7.42
2019-01-17T05:34:29.939Z,6.87
2019-01-17T05:35:35.268Z,7.25
2019-01-17T05:36:40.951Z,6.70
2019-01-17T05:37:46.266Z,7.80
2019-01-17T05:38:53.894Z,7.12
2019-01-17T05:40:00.444Z,6.83
2019-01-17T05:41:05.443Z,6.33
2019-01-17T05:42:11.101Z,7.58
2019-01-17T05:43:16.087Z,6.47
2019-01-17T05:44:21.286Z,6.75
2019-01-17T05:45:26.679Z,7.03
2019-01-17T05:46:31.627Z,7.60
2019-01-17T05:47:36.968Z,7.45
2019-01-17T05:48:42.304Z,7.28
2019-01-17T05:49:48.087Z,8.03
2019-01-17T05:50:53.773Z,7.70
2019-01-17T05:51:59.118Z,7.55
2019-01-17T05:53:04.158Z,8.73
2019-01-17T05:54:09.619Z,7.45
2019-01-17T05:55:19.668Z,9.58
2019-01-17T05:56:22.131Z,8.35
2019-01-17T05:57:30.398Z,9.70
2019-01-17T05:58:36.197Z,9.23
2019-01-17T05:59:41.509Z,8.95
2019-01-17T06:00:47.040Z,8.70
2019-01-17T06:01:52.574Z,9.38
2019-01-17T06:02:57.902Z,8.78
2019-01-17T06:04:02.827Z,9.10
2019-01-17T06:05:07.852Z,8.40
2019-01-17T06:06:13.542Z,8.73
2019-01-17T06:07:19.300Z,8.83
2019-01-17T06:08:25.583Z,9.23
2019-01-17T06:09:31.359Z,8.90
2019-01-17T06:10:36.301Z,8.33
2019-01-17T06:11:41.619Z,8.10
2019-01-17T06:12:46.849Z,7.78
2019-01-17T06:13:51.953Z,8.23
2019-01-17T06:14:56.611Z,8.25
2019-01-17T06:16:01.639Z,8.05
2019-01-17T06:17:06.508Z,8.58
2019-01-17T06:18:11.931Z,9.05
2019-01-17T06:19:17.293Z,8.25
2019-01-17T06:20:22.549Z,8.78
2019-01-17T06:21:28.000Z,8.43
2019-01-17T06:22:33.300Z,8.30
2019-01-17T06:23:38.571Z,8.40
2019-01-17T06:24:43.914Z,8.35
2019-01-17T06:25:49.801Z,8.78
2019-01-17T06:26:55.392Z,9.23
2019-01-17T06:28:00.646Z,7.97
2019-01-17T06:29:06.181Z,8.65
2019-01-17T06:30:13.365Z,8.45
2019-01-17T06:31:18.361Z,8.18
2019-01-17T06:32:23.252Z,8.05
2019-01-17T06:33:29.098Z,8.00
2019-01-17T06:34:34.386Z,8.75
2019-01-17T06:35:39.835Z,8.18
2019-01-17T06:36:44.854Z,7.78
2019-01-17T06:37:50.210Z,8.40
2019-01-17T06:38:56.125Z,9.20
2019-01-17T06:40:00.959Z,8.98
2019-01-17T06:41:05.983Z,9.25
2019-01-17T06:42:11.306Z,8.80
2019-01-17T06:43:16.925Z,8.58
2019-01-17T06:44:21.996Z,9.10
2019-01-17T06:45:27.943Z,9.10
2019-01-17T06:46:33.401Z,8.98
2019-01-17T06:47:39.279Z,9.40
2019-01-17T06:48:44.597Z,9.13
2019-01-17T06:49:50.088Z,8.70
2019-01-17T06:50:55.676Z,10.53
2019-01-17T06:52:04.034Z,9.80
2019-01-17T06:53:09.502Z,9.73
2019-01-17T06:54:14.970Z,10.60
2019-01-17T06:55:20.464Z,11.03
2019-01-17T06:56:25.712Z,11.83
2019-01-17T06:57:31.016Z,10.80
2019-01-17T06:58:36.207Z,10.25
2019-01-17T06:59:41.625Z,10.18
2019-01-17T07:00:47.745Z,10.25
2019-01-17T07:01:53.087Z,10.43
2019-01-17T07:02:58.145Z,10.85
2019-01-17T07:04:03.107Z,10.72
2019-01-17T07:05:08.185Z,11.10
2019-01-17T07:06:12.847Z,10.93
2019-01-17T07:07:18.169Z,10.80
2019-01-17T07:08:23.270Z,11.08
2019-01-17T07:09:28.339Z,11.38
2019-01-17T07:10:33.539Z,10.03
2019-01-17T07:11:38.530Z,10.88
2019-01-17T07:12:44.144Z,11.18
2019-01-17T07:13:49.714Z,11.53
2019-01-17T07:14:55.610Z,10.55
2019-01-17T07:16:00.673Z,11.03
2019-01-17T07:17:05.930Z,10.93
2019-01-17T07:18:11.512Z,11.30
2019-01-17T07:19:17.864Z,12.18
2019-01-17T07:20:23.500Z,12.55
2019-01-17T07:21:29.405Z,12.05
2019-01-17T07:22:35.879Z,11.75
2019-01-17T07:23:40.775Z,10.50
2019-01-17T07:24:46.530Z,11.25
2019-01-17T07:25:51.962Z,10.90
2019-01-17T07:26:56.910Z,10.35
2019-01-17T07:28:02.368Z,10.05
2019-01-17T07:29:08.189Z,9.80
2019-01-17T07:30:19.278Z,9.88
2019-01-17T07:31:24.451Z,9.70
2019-01-17T07:32:33.550Z,9.88
2019-01-17T07:33:38.915Z,9.65
2019-01-17T07:34:44.388Z,10.30
2019-01-17T07:35:50.078Z,9.00
2019-01-17T07:36:58.293Z,9.18
2019-01-17T07:38:03.837Z,8.18
2019-01-17T07:39:14.866Z,9.10
2019-01-17T07:40:20.587Z,7.62
2019-01-17T07:41:26.130Z,8.00
2019-01-17T07:42:31.473Z,8.73
2019-01-17T07:43:37.030Z,8.45
2019-01-17T07:44:42.388Z,8.85
2019-01-17T07:45:47.379Z,8.55
2019-01-17T07:46:52.379Z,9.33
2019-01-17T07:47:57.969Z,8.28
2019-01-17T07:49:03.654Z,7.90
2019-01-17T07:50:16.624Z,8.53
2019-01-17T07:51:27.610Z,8.03
2019-01-17T07:52:36.893Z,7.60
2019-01-17T07:53:42.015Z,8.00
2019-01-17T07:54:48.836Z,8.48
2019-01-17T07:55:54.101Z,8.35
2019-01-17T07:56:59.233Z,7.80
2019-01-17T07:58:04.234Z,8.23
2019-01-17T07:59:10.204Z,8.80
2019-01-17T08:00:17.825Z,7.87
2019-01-17T08:01:22.800Z,7.97
2019-01-17T08:02:27.711Z,8.05
2019-01-17T08:03:33.354Z,7.30
2019-01-17T08:04:38.035Z,7.17
2019-01-17T08:05:44.982Z,7.72
2019-01-17T08:06:49.932Z,7.20
2019-01-17T08:07:55.742Z,7.15
2019-01-17T08:09:01.260Z,7.47
2019-01-17T08:10:08.295Z,7.00
2019-01-17T08:11:13.640Z,6.87
2019-01-17T08:12:20.946Z,7.00
2019-01-17T08:13:26.372Z,7.03
2019-01-17T08:14:31.399Z,6.10
2019-01-17T08:15:36.440Z,5.42
2019-01-17T08:16:47.498Z,5.33
2019-01-17T08:17:52.582Z,5.60
2019-01-17T08:18:58.154Z,5.75
2019-01-17T08:20:04.005Z,5.45
2019-01-17T08:21:11.786Z,5.70
2019-01-17T08:22:16.798Z,4.67
2019-01-17T08:23:21.748Z,5.28
2019-01-17T08:24:26.368Z,4.70
2019-01-17T08:25:31.759Z,5.00
2019-01-17T08:26:37.421Z,4.80
2019-01-17T08:27:42.376Z,4.60
2019-01-17T08:28:48.488Z,4.75
2019-01-17T08:29:56.674Z,4.35
2019-01-17T08:31:04.266Z,5.10
2019-01-17T08:32:09.257Z,4.22
2019-01-17T08:33:14.485Z,4.62
2019-01-17T08:34:19.342Z,4.15
2019-01-17T08:35:24.155Z,4.50
2019-01-17T08:36:29.407Z,4.83
2019-01-17T08:37:34.899Z,4.53
2019-01-17T08:38:40.767Z,4.67
2019-01-17T08:39:46.318Z,4.85
2019-01-17T08:40:51.744Z,4.08
2019-01-17T08:41:56.670Z,4.55
2019-01-17T08:43:02.020Z,4.35
2019-01-17T08:44:07.279Z,5.08
2019-01-17T08:45:12.604Z,4.87
2019-01-17T08:46:18.273Z,4.92
2019-01-17T08:47:23.204Z,4.53
2019-01-17T08:48:29.393Z,4.67
2019-01-17T08:49:35.096Z,5.10
2019-01-17T08:50:40.047Z,4.95
2019-01-17T08:51:47.327Z,4.65
2019-01-17T08:52:59.574Z,4.67
2019-01-17T08:54:04.432Z,4.50
2019-01-17T08:55:10.322Z,4.95
2019-01-17T08:56:15.629Z,4.40
2019-01-17T08:57:21.452Z,4.67
2019-01-17T08:58:26.458Z,4.28
2019-01-17T08:59:32.389Z,4.17
2019-01-17T09:01:21.558Z,4.33
2019-01-17T09:02:26.497Z,3.85
2019-01-17T09:03:31.927Z,4.00
2019-01-17T09:04:37.498Z,3.67
2019-01-17T09:05:42.024Z,3.98
2019-01-17T09:06:46.970Z,3.62
2019-01-17T09:07:52.790Z,3.45
2019-01-17T09:08:57.989Z,3.62
2019-01-17T09:10:02.964Z,3.58
2019-01-17T09:11:08.215Z,3.10
2019-01-17T09:12:13.136Z,3.80
2019-01-17T09:13:18.706Z,3.83
2019-01-17T09:14:23.668Z,3.98
2019-01-17T09:15:30.897Z,3.67
2019-01-17T09:16:36.317Z,3.58
2019-01-17T09:17:41.571Z,3.50
2019-01-17T09:18:46.717Z,3.75
2019-01-17T09:19:51.640Z,3.50
2019-01-17T09:20:56.754Z,2.95
2019-01-17T09:22:02.092Z,3.20
2019-01-17T09:23:07.381Z,3.50
2019-01-17T09:24:12.712Z,3.15
2019-01-17T09:25:18.921Z,3.40
2019-01-17T09:26:25.400Z,2.92
2019-01-17T09:27:34.200Z,2.77
2019-01-17T09:28:52.302Z,2.98
2019-01-17T09:29:59.704Z,2.80
2019-01-17T09:31:04.928Z,2.60
2019-01-17T09:32:10.249Z,2.90
2019-01-17T09:33:15.509Z,2.90
2019-01-17T09:34:21.159Z,2.80
2019-01-17T09:35:26.478Z,3.12
2019-01-17T09:36:31.416Z,3.17
2019-01-17T09:37:35.969Z,2.72
2019-01-17T09:38:41.138Z,3.22
2019-01-17T09:39:46.322Z,3.45
2019-01-17T09:40:55.074Z,3.80
2019-01-17T09:42:00.143Z,2.92
2019-01-17T09:43:04.828Z,2.80
2019-01-17T09:44:09.618Z,3.30
2019-01-17T09:45:15.030Z,2.87
2019-01-17T09:46:19.729Z,3.08
2019-01-17T09:47:24.987Z,2.80
2019-01-17T09:48:30.227Z,2.60
2019-01-17T09:49:35.976Z,2.35
2019-01-17T09:50:41.256Z,2.47
2019-01-17T09:51:46.592Z,2.12
2019-01-17T09:52:51.480Z,2.02
2019-01-17T09:53:58.191Z,2.08
2019-01-17T09:55:03.139Z,2.42
2019-01-17T09:56:08.151Z,2.10
2019-01-17T09:57:16.586Z,2.17
2019-01-17T09:58:21.084Z,2.12
2019-01-17T09:59:26.341Z,2.42
2019-01-17T10:00:32.438Z,2.42
2019-01-17T10:01:37.664Z,2.20
2019-01-17T10:02:42.483Z,3.17
2019-01-17T10:03:48.254Z,2.30
2019-01-17T10:04:53.498Z,2.40
2019-01-17T10:05:58.967Z,2.15
2019-01-17T10:07:03.896Z,1.90
2019-01-17T10:08:09.148Z,1.98
2019-01-17T10:09:14.418Z,1.92
2019-01-17T10:10:19.430Z,1.70
2019-01-17T10:11:24.386Z,1.87
2019-01-17T10:12:29.619Z,2.25
2019-01-17T10:13:35.560Z,2.20
2019-01-17T10:14:40.420Z,2.00
2019-01-17T10:16:05.621Z,2.27
2019-01-17T10:17:20.763Z,1.80
2019-01-17T10:18:51.120Z,2.25
2019-01-17T10:20:36.881Z,1.90
2019-01-17T10:22:08.351Z,2.22
2019-01-17T10:23:53.035Z,1.87
2019-01-17T10:25:57.299Z,2.10
2019-01-17T10:27:28.467Z,1.87
2019-01-17T10:29:14.377Z,2.00
2019-01-17T10:30:55.467Z,2.02
2019-01-17T10:32:35.759Z,1.82
2019-01-17T10:33:51.364Z,2.08
2019-01-17T10:35:21.719Z,1.77
2019-01-17T10:37:13.721Z,1.77
2019-01-17T10:38:46.443Z,1.50
2019-01-17T10:40:40.280Z,1.42
2019-01-17T10:42:11.584Z,1.55
2019-01-17T10:43:51.947Z,1.40
2019-01-17T10:45:25.620Z,0.98
2019-01-17T10:47:05.790Z,1.40
2019-01-17T10:49:03.863Z,2.02
2019-01-17T10:50:29.346Z,1.50
2019-01-17T10:52:03.647Z,1.25
2019-01-17T10:53:49.918Z,1.30
2019-01-17T10:55:25.990Z,1.47
2019-01-17T10:57:14.024Z,1.65
2019-01-17T10:58:29.926Z,1.70
2019-01-17T11:00:08.316Z,1.70
2019-01-17T11:02:08.033Z,1.30
2019-01-17T11:04:09.946Z,1.40
2019-01-17T11:05:31.315Z,1.10
2019-01-17T11:06:52.906Z,1.30
2019-01-17T11:08:59.555Z,1.40
2019-01-17T11:10:41.859Z,1.25
2019-01-17T11:12:15.888Z,1.20
2019-01-17T11:13:43.132Z,0.98
2019-01-17T11:15:24.610Z,0.95
2019-01-17T11:17:04.739Z,0.90
2019-01-17T11:18:43.802Z,0.90
2019-01-17T11:20:06.752Z,0.95
2019-01-17T11:21:54.588Z,1.12
2019-01-17T11:23:33.089Z,0.82
2019-01-17T11:25:16.293Z,0.93
2019-01-17T11:26:45.251Z,1.22
2019-01-17T11:28:26.977Z,1.10
2019-01-17T11:30:11.471Z,1.05
2019-01-17T11:31:39.117Z,1.20
2019-01-17T11:33:14.879Z,1.25
2019-01-17T11:34:58.526Z,1.52
2019-01-17T11:36:33.833Z,1.60
2019-01-17T11:38:13.525Z,1.47
2019-01-17T11:39:33.037Z,1.35
2019-01-17T11:41:19.075Z,1.67
2019-01-17T11:43:07.561Z,1.80
2019-01-17T11:44:50.764Z,1.80
2019-01-17T11:46:35.061Z,1.80
2019-01-17T11:48:10.898Z,1.67
2019-01-17T11:49:46.269Z,2.00
2019-01-17T11:51:03.885Z,2.00
2019-01-17T11:53:01.362Z,2.50
2019-01-17T11:54:35.837Z,2.12
2019-01-17T11:55:59.260Z,2.58
2019-01-17T11:57:26.581Z,2.75
2019-01-17T11:59:21.996Z,2.80
2019-01-17T12:00:54.869Z,3.10
2019-01-17T12:02:49.385Z,2.87
2019-01-17T12:04:26.967Z,2.55
2019-01-17T12:05:31.884Z,2.45
2019-01-17T12:06:37.066Z,2.45
2019-01-17T12:07:42.649Z,2.50
2019-01-17T12:08:47.877Z,3.05
2019-01-17T12:09:53.499Z,3.27
2019-01-17T12:10:59.065Z,2.80
2019-01-17T12:12:04.043Z,2.80
2019-01-17T12:13:09.907Z,3.98
2019-01-17T12:14:14.880Z,3.08
2019-01-17T12:15:19.879Z,3.00
2019-01-17T12:16:24.722Z,3.27
2019-01-17T12:17:29.280Z,2.00
2019-01-17T12:18:33.834Z,2.10
2019-01-17T12:19:39.004Z,1.92
2019-01-17T12:20:43.807Z,1.42
2019-01-17T12:21:50.473Z,1.30
2019-01-17T12:22:55.782Z,1.50
2019-01-17T12:24:00.591Z,0.98
2019-01-17T12:25:06.147Z,1.05
2019-01-17T12:26:11.372Z,1.02
2019-01-17T12:27:16.633Z,1.00
2019-01-17T12:28:21.577Z,1.10
2019-01-17T12:29:26.463Z,1.25
2019-01-17T12:30:31.805Z,1.20
2019-01-17T12:31:37.170Z,1.00
2019-01-17T12:32:42.362Z,1.32
2019-01-17T12:33:47.567Z,1.37
2019-01-17T12:34:52.847Z,1.52
2019-01-17T12:35:57.836Z,1.55
2019-01-17T12:37:03.094Z,1.70
2019-01-17T12:38:07.998Z,1.72
2019-01-17T12:39:14.044Z,2.08
2019-01-17T12:40:18.874Z,2.00
2019-01-17T12:41:24.149Z,2.45
2019-01-17T12:42:29.765Z,2.02
2019-01-17T12:43:34.690Z,2.37
2019-01-17T12:44:39.648Z,2.10
2019-01-17T12:45:44.950Z,2.20
2019-01-17T12:46:50.774Z,2.20
2019-01-17T12:47:57.179Z,2.22
2019-01-17T12:49:02.591Z,2.60
2019-01-17T12:50:16.844Z,2.37
2019-01-17T12:51:22.429Z,2.20
2019-01-17T12:52:27.292Z,2.00
2019-01-17T12:53:33.156Z,2.02
2019-01-17T12:54:38.107Z,2.00
2019-01-17T12:55:42.874Z,1.77
2019-01-17T12:56:53.874Z,1.95
2019-01-17T12:57:55.096Z,2.08
2019-01-17T12:59:00.590Z,2.42
2019-01-17T13:00:07.831Z,1.65
2019-01-17T13:01:12.430Z,2.22
2019-01-17T13:02:17.336Z,1.90
2019-01-17T13:03:22.701Z,1.85
2019-01-17T13:04:27.524Z,1.90
2019-01-17T13:05:32.678Z,1.55
2019-01-17T13:06:37.508Z,1.77
2019-01-17T13:07:42.841Z,1.82
2019-01-17T13:08:48.370Z,1.80
2019-01-17T13:09:53.175Z,1.98
2019-01-17T13:10:58.174Z,1.82
2019-01-17T13:12:02.783Z,2.02
2019-01-17T13:13:08.014Z,1.92
2019-01-17T13:14:12.952Z,2.00
2019-01-17T13:15:18.374Z,2.10
2019-01-17T13:16:23.555Z,2.17
2019-01-17T13:17:28.863Z,2.70
2019-01-17T13:18:34.038Z,2.98
2019-01-17T13:19:39.196Z,2.90
2019-01-17T13:20:44.040Z,2.87
2019-01-17T13:21:48.891Z,2.90
2019-01-17T13:22:53.984Z,3.65
2019-01-17T13:24:01.783Z,3.87
2019-01-17T13:25:08.223Z,5.90
2019-01-17T13:26:13.350Z,4.37
2019-01-17T13:27:19.138Z,4.15
2019-01-17T13:28:24.009Z,3.80
2019-01-17T13:29:28.797Z,3.72
2019-01-17T13:30:34.079Z,4.08
2019-01-17T13:31:38.927Z,4.00
2019-01-17T13:32:43.951Z,3.83
2019-01-17T13:33:49.155Z,4.15
2019-01-17T13:34:53.903Z,4.85
2019-01-17T13:35:59.065Z,4.78
2019-01-17T13:37:03.639Z,4.80
2019-01-17T13:38:08.944Z,4.72
2019-01-17T13:39:14.065Z,5.45
2019-01-17T13:40:21.142Z,5.12
2019-01-17T13:41:25.936Z,5.30
2019-01-17T13:42:31.241Z,4.97
2019-01-17T13:43:36.501Z,5.22
2019-01-17T13:44:41.099Z,5.40
2019-01-17T13:45:45.942Z,5.70
2019-01-17T13:46:50.800Z,5.05
2019-01-17T13:47:55.755Z,5.00
2019-01-17T13:49:00.562Z,5.20
2019-01-17T13:50:05.764Z,5.00
2019-01-17T13:51:10.828Z,5.30
2019-01-17T13:52:16.066Z,4.40
2019-01-17T13:53:20.660Z,4.62
2019-01-17T13:54:25.211Z,4.12
2019-01-17T13:55:30.124Z,4.20
2019-01-17T13:56:35.262Z,3.12
2019-01-17T13:57:40.611Z,3.45
2019-01-17T13:58:46.901Z,3.70
2019-01-17T13:59:51.766Z,3.20
2019-01-17T14:00:57.010Z,3.25
2019-01-17T14:02:01.858Z,2.95
2019-01-17T14:03:07.074Z,2.75
2019-01-17T14:04:12.043Z,2.70
2019-01-17T14:05:17.301Z,2.10
2019-01-17T14:06:23.127Z,2.10
2019-01-17T14:07:27.965Z,2.45
2019-01-17T14:08:32.831Z,2.00
2019-01-17T14:09:37.692Z,2.20
2019-01-17T14:10:42.498Z,2.02
2019-01-17T14:11:47.369Z,2.00
2019-01-17T14:12:52.305Z,2.10
2019-01-17T14:13:57.590Z,2.10
2019-01-17T14:15:02.509Z,2.02
2019-01-17T14:16:08.359Z,1.95
2019-01-17T14:17:13.728Z,2.30
2019-01-17T14:18:19.005Z,2.22
2019-01-17T14:19:23.890Z,2.55
2019-01-17T14:20:28.710Z,2.37
2019-01-17T14:21:33.711Z,2.83
2019-01-17T14:22:38.988Z,3.05
2019-01-17T14:23:44.670Z,3.77
2019-01-17T14:24:49.614Z,2.62
2019-01-17T14:25:54.767Z,2.70
2019-01-17T14:26:59.608Z,2.37
2019-01-17T14:28:04.835Z,2.95
2019-01-17T14:29:09.668Z,3.02
2019-01-17T14:30:17.722Z,2.98
2019-01-17T14:31:23.280Z,3.02
2019-01-17T14:32:28.439Z,3.00
2019-01-17T14:33:33.590Z,2.58
2019-01-17T14:34:38.565Z,2.62
2019-01-17T14:35:44.088Z,2.30
2019-01-17T14:36:49.193Z,1.90
2019-01-17T14:37:54.357Z,2.20
2019-01-17T14:38:59.512Z,2.25
2019-01-17T14:40:04.420Z,1.77
2019-01-17T14:41:10.094Z,2.00
2019-01-17T14:42:15.704Z,2.30
2019-01-17T14:43:20.939Z,1.85
2019-01-17T14:44:27.256Z,2.00
2019-01-17T14:45:31.875Z,2.33
2019-01-17T14:46:37.090Z,2.30
2019-01-17T14:47:42.229Z,2.10
2019-01-17T14:48:47.852Z,2.00
2019-01-17T14:49:52.349Z,1.72
2019-01-17T14:50:57.503Z,1.90
2019-01-17T14:52:02.438Z,1.90
2019-01-17T14:53:07.263Z,2.00
2019-01-17T14:54:12.956Z,2.52
2019-01-17T14:55:18.630Z,2.98
2019-01-17T14:56:23.193Z,2.72
2019-01-17T14:57:28.206Z,2.12
2019-01-17T14:58:33.845Z,1.85
2019-01-17T14:59:38.980Z,1.90
2019-01-17T15:00:44.239Z,2.27
2019-01-17T15:01:49.523Z,1.90
2019-01-17T15:02:54.359Z,2.00
2019-01-17T15:03:59.668Z,2.15
2019-01-17T15:05:04.456Z,2.12
2019-01-17T15:06:09.447Z,2.52
2019-01-17T15:07:14.482Z,2.30
2019-01-17T15:08:20.177Z,1.98
2019-01-17T15:09:25.601Z,2.15
2019-01-17T15:10:33.788Z,2.05
2019-01-17T15:11:38.755Z,2.12
2019-01-17T15:12:44.033Z,2.35
2019-01-17T15:13:48.818Z,2.00
2019-01-17T15:14:53.715Z,2.30
2019-01-17T15:15:58.391Z,1.95
2019-01-17T15:17:03.901Z,1.85
2019-01-17T15:18:09.480Z,1.50
2019-01-17T15:19:14.279Z,2.30
2019-01-17T15:20:20.658Z,2.20
2019-01-17T15:21:25.801Z,2.35
2019-01-17T15:22:30.691Z,2.20
2019-01-17T15:23:35.661Z,2.15
2019-01-17T15:24:40.439Z,2.05
2019-01-17T15:25:45.395Z,2.00
2019-01-17T15:26:50.941Z,2.08
2019-01-17T15:27:56.314Z,2.72
2019-01-17T15:29:01.127Z,2.40
2019-01-17T15:30:07.258Z,2.92
2019-01-17T15:31:12.103Z,2.70
2019-01-17T15:32:16.983Z,2.42
2019-01-17T15:33:21.806Z,2.52
2019-01-17T15:34:27.293Z,1.95
2019-01-17T15:35:32.120Z,1.85